Time;durP1;ratioP1;P1;durP2;ratioP2;P2;SDS_P1;SDS_P2;PMS_P1;PMS_P2;Temp;Humidity;BMP_temperature;BMP_pressure;BME280_temperature;BME280_humidity;BME280_pressure;Samples;Min_cycle;Max_cycle;Signal;HPM_P1;HPM_P2
2023/07/05 03:02:16;;;;;;;;;;;14.40;99.90;;;;;;5187835;23;19925;-77
2023/07/05 03:04:42;;;;;;;;;;;14.40;99.90;;;;;;5033079;28;19921;-79
2023/07/05 03:07:08;;;;;;;;;;;14.40;99.90;;;;;;5032932;28;20034;-83
2023/07/05 03:09:34;;;;;;;;;;;14.40;99.90;;;;;;5033630;28;19956;-81
2023/07/05 03:12:02;;;;;;;;;;;14.40;99.90;;;;;;5033629;28;19932;-81
2023/07/05 03:14:30;;;;;;;;;;;14.40;99.90;;;;;;5033229;28;19924;-81
2023/07/05 03:16:56;;;;;;;;;;;14.40;99.90;;;;;;5017009;28;19916;-84
2023/07/05 03:19:21;;;;;;;;;;;14.40;99.90;;;;;;5035392;28;20031;-81
2023/07/05 03:21:47;;;;;;;;;;;14.40;99.90;;;;;;5034304;28;19962;-83
2023/07/05 03:24:13;;;;;;;;;;;14.40;99.90;;;;;;5033135;28;19972;-80
2023/07/05 03:26:38;;;;;;;;;;;14.40;99.90;;;;;;5035096;28;19971;-85
2023/07/05 03:29:04;;;;;;;;;;;14.50;99.90;;;;;;5034671;28;19968;-81
2023/07/05 03:31:33;;;;;;;;;;;14.50;99.90;;;;;;5032914;28;19917;-78
2023/07/05 03:33:59;;;;;;;;;;;14.50;99.90;;;;;;5016746;28;19959;-80
2023/07/05 03:36:24;;;;;;;;;;;14.60;99.90;;;;;;5033747;28;19921;-79
2023/07/05 03:38:53;;;;;;;;;;;14.60;99.90;;;;;;5034475;28;19940;-81
2023/07/05 03:41:32;;;;;;;;;;;14.60;99.90;;;;;;5016434;28;20011;-83
2023/07/05 03:44:21;;;;;;;;;;;14.60;99.90;;;;;;5033155;28;19956;-81
2023/07/05 03:46:56;;;;;;;;;;;14.70;99.90;;;;;;5016626;28;19920;-79
2023/07/05 03:49:34;;;;;;;;;;;14.70;99.90;;;;;;5032738;28;19939;-81
2023/07/05 03:52:08;;;;;;;;;;;14.70;99.90;;;;;;5033853;28;19916;-81
2023/07/05 03:54:46;;;;;;;;;;;14.70;99.90;;;;;;5032024;28;19924;-78
2023/07/05 03:57:11;;;;;;;;;;;14.80;99.90;;;;;;5033714;28;19924;-79
2023/07/05 03:59:45;;;;;;;;;;;14.80;99.90;;;;;;5033375;28;19917;-78
2023/07/05 04:02:13;;;;;;;;;;;14.80;99.90;;;;;;5037706;28;19928;-81
2023/07/05 04:04:39;;;;;;;;;;;14.80;99.90;;;;;;5037726;28;19971;-78
2023/07/05 04:07:05;;;;;;;;;;;14.80;99.90;;;;;;5019978;28;19917;-78
2023/07/05 04:09:31;;;;;;;;;;;14.80;99.90;;;;;;5020939;28;20332;-78
2023/07/05 04:11:56;;;;;;;;;;;14.80;99.90;;;;;;5019534;28;20364;-80
2023/07/05 04:14:22;;;;;;;;;;;14.80;99.90;;;;;;5019882;28;20339;-80
2023/07/05 04:16:48;;;;;;;;;;;14.80;99.90;;;;;;5020161;28;19995;-79
2023/07/05 04:19:15;;;;;;;;;;;14.80;99.90;;;;;;5020096;28;19979;-77
2023/07/05 04:21:41;;;;;;;;;;;14.90;99.90;;;;;;5019353;28;19921;-78
2023/07/05 04:24:06;;;;;;;;;;;14.90;99.90;;;;;;5019430;28;19939;-78
2023/07/05 04:26:32;;;;;;;;;;;14.90;99.90;;;;;;5037365;28;19932;-79
2023/07/05 04:28:58;;;;;;;;;;;14.90;99.90;;;;;;5019715;28;19968;-78
2023/07/05 04:31:27;;;;;;;;;;;14.80;99.90;;;;;;5019556;28;20005;-77
2023/07/05 04:33:53;;;;;;;;;;;14.80;99.90;;;;;;5035656;28;20011;-78
2023/07/05 04:36:18;;;;;;;;;;;14.70;99.90;;;;;;5020011;28;19917;-77
2023/07/05 04:38:44;;;;;;;;;;;14.60;99.90;;;;;;5037239;28;19926;-77
2023/07/05 04:41:09;;;;;;;;;;;14.60;99.90;;;;;;5036208;28;20395;-78
2023/07/05 04:43:35;;;;;;;;;;;14.50;99.90;;;;;;5035649;28;19924;-78
2023/07/05 04:46:01;;;;;;;;;;;14.40;99.90;;;;;;5035484;28;19917;-77
2023/07/05 04:48:27;;;;;;;;;;;14.30;99.90;;;;;;5037098;28;19917;-80
2023/07/05 04:50:54;;;;;;;;;;;14.30;99.90;;;;;;5035501;28;19928;-79
2023/07/05 04:53:21;;;;;;;;;;;14.20;99.90;;;;;;5035709;28;19917;-77
2023/07/05 04:55:48;;;;;;;;;;;14.20;99.90;;;;;;5035711;28;19917;-77
2023/07/05 04:58:14;;;;;;;;;;;14.10;99.90;;;;;;5035351;28;19971;-78
2023/07/05 05:00:40;;;;;;;;;;;14.10;99.90;;;;;;5035271;28;20012;-78
2023/07/05 05:03:05;;;;;;;;;;;14.00;99.90;;;;;;5035895;28;19967;-78
2023/07/05 05:05:31;;;;;;;;;;;14.00;99.90;;;;;;5035565;28;19917;-80
2023/07/05 05:07:56;;;;;;;;;;;14.00;99.90;;;;;;5036429;28;19924;-77
2023/07/05 05:10:22;;;;;;;;;;;14.00;99.90;;;;;;5018617;28;19932;-78
2023/07/05 05:12:47;;;;;;;;;;;13.90;99.90;;;;;;5035109;28;20265;-78
2023/07/05 05:15:13;;;;;;;;;;;13.90;99.90;;;;;;5035220;28;19921;-79
2023/07/05 05:17:38;;;;;;;;;;;13.90;99.90;;;;;;5035649;28;19916;-77
2023/07/05 05:20:04;;;;;;;;;;;13.90;99.90;;;;;;5035273;28;20090;-77
2023/07/05 05:22:30;;;;;;;;;;;13.80;99.90;;;;;;5034977;28;19924;-79
2023/07/05 05:24:56;;;;;;;;;;;13.90;99.90;;;;;;5034955;28;19917;-77
2023/07/05 05:27:21;;;;;;;;;;;13.90;99.90;;;;;;5034889;28;19917;-79
2023/07/05 05:29:47;;;;;;;;;;;13.90;99.90;;;;;;5034942;28;19956;-77
2023/07/05 05:32:12;;;;;;;;;;;13.90;99.90;;;;;;5036015;28;20339;-77
2023/07/05 05:34:38;;;;;;;;;;;13.90;99.90;;;;;;5035031;28;20315;-77
2023/07/05 05:37:03;;;;;;;;;;;13.90;99.90;;;;;;5035172;28;19924;-76
2023/07/05 05:39:29;;;;;;;;;;;13.90;99.90;;;;;;5035773;28;19916;-77
2023/07/05 05:41:54;;;;;;;;;;;13.90;99.90;;;;;;5034589;28;20315;-78
2023/07/05 05:44:20;;;;;;;;;;;13.90;99.90;;;;;;5035177;28;20383;-78
2023/07/05 05:46:45;;;;;;;;;;;13.90;99.90;;;;;;5035102;28;19917;-78
2023/07/05 05:49:11;;;;;;;;;;;13.90;99.90;;;;;;5036005;28;19917;-79
2023/07/05 05:51:36;;;;;;;;;;;13.90;99.90;;;;;;5034459;28;19920;-78
2023/07/05 05:54:02;;;;;;;;;;;13.90;99.90;;;;;;5034371;28;19940;-77
2023/07/05 05:56:27;;;;;;;;;;;13.90;99.90;;;;;;5034375;28;20338;-76
2023/07/05 05:58:53;;;;;;;;;;;13.90;99.90;;;;;;5017874;28;19927;-78
2023/07/05 06:01:19;;;;;;;;;;;13.90;99.90;;;;;;5017439;28;19928;-78
2023/07/05 06:03:45;;;;;;;;;;;13.90;99.90;;;;;;5034193;28;19923;-77
2023/07/05 06:06:11;;;;;;;;;;;14.00;99.90;;;;;;5034780;28;19917;-77
2023/07/05 06:08:36;;;;;;;;;;;14.00;99.90;;;;;;5034454;28;19923;-78
2023/07/05 06:11:03;;;;;;;;;;;14.00;99.90;;;;;;5034263;28;20324;-78
2023/07/05 06:13:29;;;;;;;;;;;14.00;99.90;;;;;;5034112;28;20008;-79
2023/07/05 06:15:59;;;;;;;;;;;14.10;99.90;;;;;;5033999;28;19924;-78
2023/07/05 06:18:28;;;;;;;;;;;14.10;99.90;;;;;;5035077;28;20398;-77
2023/07/05 06:20:53;;;;;;;;;;;14.20;99.90;;;;;;5033832;28;20377;-77
2023/07/05 06:23:19;;;;;;;;;;;14.30;99.90;;;;;;5033646;28;19952;-78
2023/07/05 06:25:47;;;;;;;;;;;14.20;99.90;;;;;;5035279;28;19931;-78
2023/07/05 06:28:13;;;;;;;;;;;14.20;99.90;;;;;;5033730;28;19925;-77
2023/07/05 06:30:39;;;;;;;;;;;14.20;99.90;;;;;;5033613;28;19924;-78
2023/07/05 06:33:04;;;;;;;;;;;14.20;99.90;;;;;;5033548;28;19917;-76
2023/07/05 06:35:30;;;;;;;;;;;14.20;99.90;;;;;;5033679;28;19917;-78
2023/07/05 06:37:56;;;;;;;;;;;14.20;99.90;;;;;;5033635;28;19917;-77
2023/07/05 06:40:21;;;;;;;;;;;14.20;99.90;;;;;;5017587;28;19921;-76
2023/07/05 06:42:47;;;;;;;;;;;14.20;99.90;;;;;;5033692;28;19917;-78
2023/07/05 06:45:12;;;;;;;;;;;14.20;99.90;;;;;;5033678;28;19920;-78
2023/07/05 06:47:38;;;;;;;;;;;14.20;99.90;;;;;;5033608;28;20323;-77
2023/07/05 06:50:04;;;;;;;;;;;14.20;99.90;;;;;;5033740;28;20284;-77
2023/07/05 06:52:30;;;;;;;;;;;14.20;99.90;;;;;;5016568;28;19948;-78
2023/07/05 06:54:55;;;;;;;;;;;14.30;99.90;;;;;;5033583;28;19916;-76
2023/07/05 06:57:21;;;;;;;;;;;14.30;99.90;;;;;;5033774;28;19931;-77
2023/07/05 06:59:47;;;;;;;;;;;14.30;99.90;;;;;;5033129;28;19924;-77
2023/07/05 07:02:12;;;;;;;;;;;14.40;99.90;;;;;;5016822;28;20011;-77
2023/07/05 07:04:38;;;;;;;;;;;14.30;99.90;;;;;;5033442;28;20015;-79
2023/07/05 07:07:04;;;;;;;;;;;14.30;99.90;;;;;;5032991;28;20280;-77
2023/07/05 07:09:29;;;;;;;;;;;14.20;99.90;;;;;;5033128;28;20003;-77
2023/07/05 07:11:55;;;;;;;;;;;14.20;99.90;;;;;;5032660;28;19921;-77
2023/07/05 07:14:20;;;;;;;;;;;14.20;99.90;;;;;;5032809;28;20011;-78
2023/07/05 07:16:46;;;;;;;;;;;14.10;99.90;;;;;;5032867;28;19924;-77
2023/07/05 07:19:12;;;;;;;;;;;14.00;99.90;;;;;;5034121;28;19995;-76
2023/07/05 07:21:38;;;;;;;;;;;13.90;99.90;;;;;;5034184;28;20005;-76
2023/07/05 07:24:04;;;;;;;;;;;13.80;99.90;;;;;;5032790;28;19916;-77
2023/07/05 07:26:29;;;;;;;;;;;13.70;99.90;;;;;;5033677;28;20333;-76
2023/07/05 07:28:56;;;;;;;;;;;13.40;99.90;;;;;;5033096;28;20323;-77
2023/07/05 07:31:23;;;;;;;;;;;13.20;99.90;;;;;;5034158;28;19928;-76
2023/07/05 07:33:48;;;;;;;;;;;12.90;99.90;;;;;;5032173;28;19931;-77
2023/07/05 07:36:16;;;;;;;;;;;12.70;99.90;;;;;;5033601;28;19925;-77
2023/07/05 07:38:42;;;;;;;;;;;12.50;99.90;;;;;;5032898;28;19966;-78
2023/07/05 07:41:15;;;;;;;;;;;12.40;99.90;;;;;;5032300;28;19971;-78
2023/07/05 07:43:41;;;;;;;;;;;12.30;99.90;;;;;;5034468;28;19967;-78
2023/07/05 07:46:11;;;;;;;;;;;12.20;99.90;;;;;;5016604;28;19916;-77
2023/07/05 07:48:37;;;;;;;;;;;12.10;99.90;;;;;;5016278;28;19924;-78
2023/07/05 07:51:09;;;;;;;;;;;12.00;99.90;;;;;;5037589;23;19971;-77
2023/07/05 07:53:35;;;;;;;;;;;12.00;99.90;;;;;;5032563;28;19921;-78
2023/07/05 07:56:08;;;;;;;;;;;12.00;99.90;;;;;;5033448;28;19971;-78
2023/07/05 07:58:34;;;;;;;;;;;12.00;99.90;;;;;;5016177;28;19917;-76
2023/07/05 08:01:09;;;;;;;;;;;11.90;99.90;;;;;;5032210;28;19971;-76
2023/07/05 08:03:34;;;;;;;;;;;11.90;99.90;;;;;;5033727;28;20237;-79
2023/07/05 08:06:00;;;;;;;;;;;11.90;99.90;;;;;;5032149;28;19924;-77
2023/07/05 08:08:25;;;;;;;;;;;11.90;99.90;;;;;;5032605;28;19978;-79
2023/07/05 08:10:51;;;;;;;;;;;11.90;99.90;;;;;;5032171;28;20335;-83
2023/07/05 08:13:16;;;;;;;;;;;11.80;99.90;;;;;;5032302;28;19923;-79
2023/07/05 08:15:42;;;;;;;;;;;11.80;99.90;;;;;;5032841;28;19972;-77
2023/07/05 08:18:07;;;;;;;;;;;11.80;99.90;;;;;;5032054;28;20403;-76
2023/07/05 08:20:33;;;;;;;;;;;11.80;99.90;;;;;;5032001;28;19971;-79
2023/07/05 08:22:59;;;;;;;;;;;11.70;99.90;;;;;;5032089;28;19925;-80
2023/07/05 08:25:24;;;;;;;;;;;11.70;99.90;;;;;;5032057;28;19921;-76
2023/07/05 08:27:50;;;;;;;;;;;11.70;99.90;;;;;;5031843;28;19924;-77
2023/07/05 08:30:15;;;;;;;;;;;11.70;99.90;;;;;;5031888;28;19923;-76
2023/07/05 08:32:41;;;;;;;;;;;11.70;99.90;;;;;;5032656;28;19924;-80
2023/07/05 08:35:07;;;;;;;;;;;11.80;99.90;;;;;;5033196;28;19921;-78
2023/07/05 08:37:32;;;;;;;;;;;11.80;99.90;;;;;;5018102;28;19967;-77
2023/07/05 08:39:58;;;;;;;;;;;11.90;99.90;;;;;;5033162;28;20042;-79
2023/07/05 08:42:33;;;;;;;;;;;12.00;99.90;;;;;;5033336;28;19921;-81
2023/07/05 08:45:01;;;;;;;;;;;12.00;99.90;;;;;;5032853;28;19924;-76
2023/07/05 08:47:36;;;;;;;;;;;12.00;99.90;;;;;;5035772;28;19943;-79
2023/07/05 08:50:23;;;;;;;;;;;12.00;99.90;;;;;;5036049;28;20004;-78
2023/07/05 08:52:50;;;;;;;;;;;12.10;99.90;;;;;;5019238;28;19921;-79
2023/07/05 08:55:23;;;;;;;;;;;12.20;99.90;;;;;;5036060;28;19917;-80
2023/07/05 08:57:53;;;;;;;;;;;12.40;99.90;;;;;;5019832;28;19935;-79
2023/07/05 09:00:28;;;;;;;;;;;12.50;99.90;;;;;;5038058;28;19960;-80
2023/07/05 09:02:54;;;;;;;;;;;12.70;99.90;;;;;;5035834;28;19928;-79
2023/07/05 09:05:30;;;;;;;;;;;12.90;99.90;;;;;;5035360;28;20066;-78
2023/07/05 09:08:10;;;;;;;;;;;13.10;99.90;;;;;;5035461;28;19996;-78
2023/07/05 09:10:37;;;;;;;;;;;13.30;99.90;;;;;;5035576;28;19956;-77
2023/07/05 09:13:09;;;;;;;;;;;13.50;99.90;;;;;;5035747;28;19917;-78
2023/07/05 09:16:01;;;;;;;;;;;13.60;99.90;;;;;;5035338;28;19917;-78
2023/07/05 09:18:45;;;;;;;;;;;13.80;99.90;;;;;;5031521;28;19995;-78
2023/07/05 09:21:21;;;;;;;;;;;14.00;99.90;;;;;;5036482;28;19924;-75
2023/07/05 09:23:55;;;;;;;;;;;14.10;99.90;;;;;;5034997;28;19921;-78
2023/07/05 09:26:27;;;;;;;;;;;14.20;99.90;;;;;;5034873;28;19921;-79
2023/07/05 09:29:05;;;;;;;;;;;14.30;99.90;;;;;;5036415;28;19924;-78
2023/07/05 09:31:30;;;;;;;;;;;14.40;99.90;;;;;;5036005;28;20372;-77
2023/07/05 09:34:02;;;;;;;;;;;14.30;99.90;;;;;;5034818;28;20005;-76
2023/07/05 09:36:27;;;;;;;;;;;14.50;99.90;;;;;;5034942;28;19967;-79
2023/07/05 09:39:00;;;;;;;;;;;14.70;99.90;;;;;;5034765;28;19917;-79
2023/07/05 09:41:40;;;;;;;;;;;14.80;99.90;;;;;;5034537;28;19916;-77
2023/07/05 09:44:05;;;;;;;;;;;14.90;99.90;;;;;;5036344;28;19987;-78
2023/07/05 09:46:33;;;;;;;;;;;14.80;99.90;;;;;;5018012;28;20372;-77
2023/07/05 09:48:59;;;;;;;;;;;14.80;99.90;;;;;;5034833;28;19927;-75
2023/07/05 09:51:25;;;;;;;;;;;14.80;99.90;;;;;;5034366;28;19917;-79
2023/07/05 09:53:59;;;;;;;;;;;14.80;99.90;;;;;;5034825;28;19924;-82
2023/07/05 09:56:27;;;;;;;;;;;14.80;99.90;;;;;;5034629;28;20008;-78
2023/07/05 09:59:12;;;;;;;;;;;14.80;99.90;;;;;;5034082;28;20269;-75
2023/07/05 10:01:40;;;;;;;;;;;14.90;99.90;;;;;;5035947;28;20339;-80
2023/07/05 10:04:07;;;;;;;;;;;15.10;99.90;;;;;;5036221;28;20343;-78
2023/07/05 10:06:33;;;;;;;;;;;15.00;99.90;;;;;;5034315;28;20372;-78
2023/07/05 10:09:02;;;;;;;;;;;15.00;99.90;;;;;;5035627;28;19967;-79
2023/07/05 10:11:28;;;;;;;;;;;14.90;99.90;;;;;;5034283;28;19917;-78
2023/07/05 10:14:06;;;;;;;;;;;14.90;99.90;;;;;;5035387;28;19917;-78
2023/07/05 10:16:43;;;;;;;;;;;14.90;99.90;;;;;;5034134;28;20384;-78
2023/07/05 10:19:19;;;;;;;;;;;14.90;99.90;;;;;;5035199;28;19985;-76
2023/07/05 10:21:46;;;;;;;;;;;15.00;99.90;;;;;;5017501;28;20039;-77
2023/07/05 10:24:13;;;;;;;;;;;15.00;99.90;;;;;;5034091;28;19921;-79
2023/07/05 10:26:41;;;;;;;;;;;15.10;99.90;;;;;;5034103;28;20214;-79
2023/07/05 10:29:10;;;;;;;;;;;15.20;99.90;;;;;;5035423;28;20295;-79
2023/07/05 10:31:35;;;;;;;;;;;15.20;99.90;;;;;;5033857;28;20016;-77
2023/07/05 10:34:17;;;;;;;;;;;15.20;99.90;;;;;;5033602;28;19960;-81
2023/07/05 10:36:44;;;;;;;;;;;15.10;99.90;;;;;;5033950;28;20283;-76
2023/07/05 10:39:10;;;;;;;;;;;15.20;99.90;;;;;;5035334;28;19936;-78
2023/07/05 10:41:36;;;;;;;;;;;15.20;99.90;;;;;;5033468;28;19921;-77
2023/07/05 10:44:05;;;;;;;;;;;15.30;99.90;;;;;;5033702;28;19921;-79
2023/07/05 10:46:32;;;;;;;;;;;15.40;99.90;;;;;;5033517;28;20376;-80
2023/07/05 10:48:58;;;;;;;;;;;15.50;99.90;;;;;;5033779;28;19917;-77
2023/07/05 10:51:25;;;;;;;;;;;15.60;99.90;;;;;;5033278;28;20446;-77
2023/07/05 10:53:55;;;;;;;;;;;15.60;99.90;;;;;;5016736;28;19917;-77
2023/07/05 10:56:22;;;;;;;;;;;15.60;99.90;;;;;;5033573;28;20424;-77
2023/07/05 10:58:52;;;;;;;;;;;15.50;99.90;;;;;;5034631;28;19994;-78
2023/07/05 11:01:26;;;;;;;;;;;15.60;99.90;;;;;;5033086;28;19917;-77
2023/07/05 11:04:12;;;;;;;;;;;15.70;99.90;;;;;;5033083;28;19921;-76
2023/07/05 11:06:40;;;;;;;;;;;15.80;99.90;;;;;;5033427;28;19939;-79
2023/07/05 11:09:07;;;;;;;;;;;15.60;99.90;;;;;;5033117;28;19917;-79
2023/07/05 11:11:38;;;;;;;;;;;15.30;99.90;;;;;;5033093;28;20446;-78
2023/07/05 11:14:03;;;;;;;;;;;15.00;99.90;;;;;;5033038;28;19917;-82
2023/07/05 11:16:33;;;;;;;;;;;14.70;99.90;;;;;;5034550;28;20288;-82
2023/07/05 11:19:09;;;;;;;;;;;14.30;99.90;;;;;;5032994;28;19921;-76
2023/07/05 11:21:36;;;;;;;;;;;13.90;99.90;;;;;;5016324;28;19917;-82
2023/07/05 11:24:04;;;;;;;;;;;13.60;99.90;;;;;;5034379;28;19928;-78
2023/07/05 11:26:38;;;;;;;;;;;13.40;99.90;;;;;;5032951;28;19924;-82
2023/07/05 11:29:23;;;;;;;;;;;13.30;99.90;;;;;;5032712;28;19952;-82
2023/07/05 11:31:48;;;;;;;;;;;13.10;99.90;;;;;;5032651;28;19944;-81
2023/07/05 11:34:23;;;;;;;;;;;13.00;99.90;;;;;;5033330;28;20034;-81
2023/07/05 11:37:06;;;;;;;;;;;12.70;99.90;;;;;;5034216;28;19928;-79
2023/07/05 11:39:41;;;;;;;;;;;12.70;99.90;;;;;;5034681;28;19917;-78
2023/07/05 11:42:16;;;;;;;;;;;12.50;99.90;;;;;;5033754;28;20284;-87
2023/07/05 11:45:01;;;;;;;;;;;12.50;99.90;;;;;;5034192;28;20257;-79
2023/07/05 11:47:29;;;;;;;;;;;12.40;99.90;;;;;;5033965;28;19917;-84
2023/07/05 11:49:56;;;;;;;;;;;12.40;99.90;;;;;;5033539;28;19924;-79
2023/07/05 11:52:23;;;;;;;;;;;12.30;99.90;;;;;;5032195;28;19917;-79
2023/07/05 11:55:03;;;;;;;;;;;12.40;99.90;;;;;;5034004;28;19921;-78
2023/07/05 11:57:34;;;;;;;;;;;12.40;99.90;;;;;;5032965;28;19917;-79
2023/07/05 12:00:19;;;;;;;;;;;12.40;99.90;;;;;;5032648;28;20315;-83
2023/07/05 12:02:48;;;;;;;;;;;12.40;99.90;;;;;;5032493;28;20015;-81
2023/07/05 12:05:18;;;;;;;;;;;12.40;99.90;;;;;;5033876;28;19971;-83
2023/07/05 12:07:50;;;;;;;;;;;12.50;99.90;;;;;;5033949;28;19923;-79
2023/07/05 12:10:20;;;;;;;;;;;12.50;99.90;;;;;;5032790;28;19916;-78
2023/07/05 12:12:46;;;;;;;;;;;12.50;99.90;;;;;;5032165;28;19917;-84
2023/07/05 12:15:12;;;;;;;;;;;12.50;99.90;;;;;;5032440;28;19956;-80
2023/07/05 12:17:38;;;;;;;;;;;12.50;99.90;;;;;;5032626;28;20292;-77
2023/07/05 12:20:23;;;;;;;;;;;12.50;99.90;;;;;;5033027;28;19917;-81
2023/07/05 12:22:49;;;;;;;;;;;12.50;99.90;;;;;;5038058;28;19975;-82
2023/07/05 12:25:14;;;;;;;;;;;12.50;99.90;;;;;;5036673;28;19917;-81
2023/07/05 12:27:40;;;;;;;;;;;12.50;99.90;;;;;;5036474;28;20279;-82
2023/07/05 12:30:16;;;;;;;;;;;12.60;99.90;;;;;;5037326;28;19983;-81
2023/07/05 12:32:46;;;;;;;;;;;12.60;99.90;;;;;;5036307;28;19967;-78
2023/07/05 12:35:12;;;;;;;;;;;12.70;99.90;;;;;;5037949;28;19924;-81
2023/07/05 12:37:38;;;;;;;;;;;12.80;99.90;;;;;;5037345;28;19921;-81
2023/07/05 12:40:12;;;;;;;;;;;12.80;99.90;;;;;;5035974;28;19917;-79
2023/07/05 12:42:59;;;;;;;;;;;12.90;99.90;;;;;;5036246;28;20298;-80
2023/07/05 12:45:30;;;;;;;;;;;12.90;99.90;;;;;;5036045;28;19924;-79
2023/07/05 12:47:55;;;;;;;;;;;13.00;99.90;;;;;;5035723;28;19916;-78
2023/07/05 12:50:23;;;;;;;;;;;13.00;99.90;;;;;;5037062;28;20214;-82
2023/07/05 12:52:59;;;;;;;;;;;13.20;99.90;;;;;;5035897;28;19936;-80
2023/07/05 12:55:28;;;;;;;;;;;13.20;99.90;;;;;;5035709;28;19923;-81
2023/07/05 12:57:55;;;;;;;;;;;13.30;99.90;;;;;;5036970;28;19959;-81
2023/07/05 13:00:21;;;;;;;;;;;13.40;99.90;;;;;;5036771;28;19921;-81
2023/07/05 13:02:46;;;;;;;;;;;13.50;99.90;;;;;;5035609;28;19975;-81
2023/07/05 13:05:12;;;;;;;;;;;13.50;99.90;;;;;;5036849;28;19931;-80
2023/07/05 13:07:39;;;;;;;;;;;13.60;99.90;;;;;;5036892;28;20265;-82
2023/07/05 13:10:08;;;;;;;;;;;13.60;99.90;;;;;;5035968;28;20365;-82
2023/07/05 13:12:53;;;;;;;;;;;13.60;99.90;;;;;;5018700;28;19999;-79
2023/07/05 13:15:19;;;;;;;;;;;13.60;99.90;;;;;;5035339;28;20376;-79
2023/07/05 13:17:45;;;;;;;;;;;13.60;99.90;;;;;;5035451;28;19966;-81
2023/07/05 13:20:12;;;;;;;;;;;13.60;99.90;;;;;;5036792;28;20280;-81
2023/07/05 13:22:41;;;;;;;;;;;13.50;99.90;;;;;;5036237;28;19939;-78
2023/07/05 13:25:26;;;;;;;;;;;13.50;99.90;;;;;;5035506;28;19917;-78
2023/07/05 13:27:55;;;;;;;;;;;13.40;99.90;;;;;;5036533;28;20230;-78
2023/07/05 13:30:21;;;;;;;;;;;13.40;99.90;;;;;;5037393;28;19975;-82
2023/07/05 13:32:51;;;;;;;;;;;13.30;99.90;;;;;;5034382;28;19917;-80
2023/07/05 13:35:16;;;;;;;;;;;13.20;99.90;;;;;;5035083;28;19920;-79
2023/07/05 13:37:42;;;;;;;;;;;13.20;99.90;;;;;;5018572;28;20357;-79
2023/07/05 13:40:16;;;;;;;;;;;13.20;99.90;;;;;;5018417;28;20284;-82
2023/07/05 13:42:41;;;;;;;;;;;13.20;99.90;;;;;;5036822;28;19921;-82
2023/07/05 13:45:21;;;;;;;;;;;13.20;99.90;;;;;;5034811;28;19967;-79
2023/07/05 13:47:48;;;;;;;;;;;13.30;99.90;;;;;;5036211;28;20272;-82
2023/07/05 13:50:14;;;;;;;;;;;13.30;99.90;;;;;;5035097;28;19917;-80
2023/07/05 13:52:41;;;;;;;;;;;13.30;99.90;;;;;;5034314;28;20324;-76
2023/07/05 13:55:14;;;;;;;;;;;13.30;99.90;;;;;;5035941;28;20369;-80
2023/07/05 13:57:50;;;;;;;;;;;13.40;99.90;;;;;;5036058;28;20304;-82
2023/07/05 14:00:17;;;;;;;;;;;13.50;99.90;;;;;;5035747;28;20280;-79
2023/07/05 14:02:43;;;;;;;;;;;13.60;99.90;;;;;;5017763;28;19921;-83
2023/07/05 14:05:08;;;;;;;;;;;13.70;99.90;;;;;;5034504;28;19969;-76
2023/07/05 14:07:34;;;;;;;;;;;13.80;99.90;;;;;;5035636;28;19935;-78
2023/07/05 14:10:00;;;;;;;;;;;13.90;99.90;;;;;;5035545;28;20344;-76
2023/07/05 14:12:25;;;;;;;;;;;13.90;99.90;;;;;;5034144;28;19923;-83
2023/07/05 14:14:51;;;;;;;;;;;14.00;99.90;;;;;;5034590;28;19917;-80
2023/07/05 14:17:18;;;;;;;;;;;14.10;99.90;;;;;;5033903;28;19916;-78
2023/07/05 14:19:44;;;;;;;;;;;14.20;99.90;;;;;;5033914;28;19917;-77
2023/07/05 14:22:23;;;;;;;;;;;14.30;99.90;;;;;;5033662;28;19960;-78
2023/07/05 14:24:50;;;;;;;;;;;14.40;99.90;;;;;;5033967;28;20292;-78
2023/07/05 14:27:20;;;;;;;;;;;14.40;99.90;;;;;;5035427;28;20268;-78
2023/07/05 14:29:46;;;;;;;;;;;14.40;99.90;;;;;;5033702;28;19917;-77
2023/07/05 14:32:12;;;;;;;;;;;14.50;99.90;;;;;;5035289;28;19960;-77
2023/07/05 14:34:38;;;;;;;;;;;14.60;99.90;;;;;;5035044;28;19936;-80
2023/07/05 14:37:04;;;;;;;;;;;14.60;99.90;;;;;;5033575;28;19963;-79
2023/07/05 14:39:29;;;;;;;;;;;14.60;99.90;;;;;;5034307;28;19917;-82
2023/07/05 14:41:55;;;;;;;;;;;14.80;99.90;;;;;;5033941;28;19916;-81
2023/07/05 14:44:20;;;;;;;;;;;15.00;99.90;;;;;;5016464;28;19925;-80
2023/07/05 14:46:46;;;;;;;;;;;15.10;99.90;;;;;;5034920;28;20078;-79
2023/07/05 14:49:13;;;;;;;;;;;15.30;99.90;;;;;;5034684;28;19956;-79
2023/07/05 14:51:40;;;;;;;;;;;15.20;99.90;;;;;;5034452;28;19956;-80
2023/07/05 14:54:06;;;;;;;;;;;15.30;99.90;;;;;;5034270;28;19917;-78
2023/07/05 14:56:32;;;;;;;;;;;15.30;99.90;;;;;;5033788;28;20369;-80
2023/07/05 14:58:58;;;;;;;;;;;15.30;99.90;;;;;;5016823;28;19928;-78
2023/07/05 15:01:23;;;;;;;;;;;15.40;99.90;;;;;;5033494;28;19917;-77
2023/07/05 15:03:49;;;;;;;;;;;15.50;99.90;;;;;;5033474;28;19926;-77
2023/07/05 15:06:17;;;;;;;;;;;15.60;99.90;;;;;;5034621;28;19967;-82
2023/07/05 15:08:43;;;;;;;;;;;15.60;99.90;;;;;;5033036;28;19917;-82
2023/07/05 15:11:11;;;;;;;;;;;15.60;99.90;;;;;;5034398;28;19960;-78
2023/07/05 15:13:42;;;;;;;;;;;15.50;99.90;;;;;;5033964;28;19916;-79
2023/07/05 15:16:07;;;;;;;;;;;15.50;99.90;;;;;;5034357;28;19920;-79
2023/07/05 15:18:33;;;;;;;;;;;15.50;99.90;;;;;;5033310;28;19917;-81
2023/07/05 15:21:00;;;;;;;;;;;15.50;99.90;;;;;;5032640;28;20368;-80
2023/07/05 15:23:26;;;;;;;;;;;15.60;99.90;;;;;;5034263;28;19921;-82
2023/07/05 15:25:53;;;;;;;;;;;15.90;99.90;;;;;;5034187;28;19955;-78
2023/07/05 15:28:19;;;;;;;;;;;16.10;99.90;;;;;;5032783;28;19963;-77
2023/07/05 15:30:45;;;;;;;;;;;16.20;99.90;;;;;;5033852;28;19917;-80
2023/07/05 15:33:10;;;;;;;;;;;16.20;99.90;;;;;;5016443;28;20292;-79
2023/07/05 15:35:36;;;;;;;;;;;16.30;99.90;;;;;;5034037;28;20011;-76
2023/07/05 15:38:01;;;;;;;;;;;16.30;99.90;;;;;;5032699;28;20008;-78
2023/07/05 15:40:27;;;;;;;;;;;16.30;99.90;;;;;;5032354;28;20464;-82
2023/07/05 15:42:52;;;;;;;;;;;16.30;99.90;;;;;;5032388;28;19963;-81
2023/07/05 15:45:20;;;;;;;;;;;16.30;99.90;;;;;;5016435;28;19921;-81
2023/07/05 15:47:48;;;;;;;;;;;16.20;99.90;;;;;;5033996;28;20352;-80
2023/07/05 15:50:15;;;;;;;;;;;16.10;99.90;;;;;;5032476;28;19917;-81
2023/07/05 15:52:41;;;;;;;;;;;16.10;99.90;;;;;;5032052;28;19966;-80
2023/07/05 15:55:07;;;;;;;;;;;16.00;99.90;;;;;;5031737;28;20000;-83
2023/07/05 15:57:33;;;;;;;;;;;15.90;99.90;;;;;;5032595;28;20414;-80
2023/07/05 16:00:01;;;;;;;;;;;15.80;99.90;;;;;;5033704;28;20003;-81
2023/07/05 16:02:30;;;;;;;;;;;15.80;99.90;;;;;;5032674;28;19961;-81
2023/07/05 16:04:55;;;;;;;;;;;15.80;99.90;;;;;;5032911;28;20283;-81
2023/07/05 16:07:22;;;;;;;;;;;15.80;99.90;;;;;;5032409;28;20000;-80
2023/07/05 16:09:47;;;;;;;;;;;16.00;99.90;;;;;;5032719;28;20007;-80
2023/07/05 16:12:13;;;;;;;;;;;16.20;99.90;;;;;;5015860;28;19964;-80
2023/07/05 16:14:39;;;;;;;;;;;16.20;99.90;;;;;;5033054;28;19923;-79
2023/07/05 16:17:04;;;;;;;;;;;16.40;99.90;;;;;;5033773;28;19967;-80
2023/07/05 16:19:30;;;;;;;;;;;16.50;99.90;;;;;;5032497;28;19986;-80
2023/07/05 16:21:55;;;;;;;;;;;16.60;99.90;;;;;;5033502;28;19921;-78
2023/07/05 16:24:21;;;;;;;;;;;16.60;99.90;;;;;;5034323;28;19924;-82
2023/07/05 16:26:46;;;;;;;;;;;16.60;99.90;;;;;;5032471;28;19924;-81
2023/07/05 16:29:13;;;;;;;;;;;16.50;99.90;;;;;;5032518;28;19986;-79
2023/07/05 16:31:39;;;;;;;;;;;16.50;99.90;;;;;;5033685;28;19943;-78
2023/07/05 16:34:04;;;;;;;;;;;16.50;99.90;;;;;;5032106;28;20380;-80
2023/07/05 16:36:31;;;;;;;;;;;16.40;99.90;;;;;;5032738;28;19917;-79
2023/07/05 16:39:00;;;;;;;;;;;16.50;99.90;;;;;;5032787;28;19917;-80
2023/07/05 16:41:27;;;;;;;;;;;16.50;99.90;;;;;;5032476;28;19921;-82
2023/07/05 16:43:54;;;;;;;;;;;16.60;99.90;;;;;;5032269;28;20386;-80
2023/07/05 16:46:20;;;;;;;;;;;16.70;99.90;;;;;;5033939;28;19925;-78
2023/07/05 16:48:46;;;;;;;;;;;16.60;99.90;;;;;;5033076;28;20343;-81
2023/07/05 16:51:12;;;;;;;;;;;16.60;99.90;;;;;;5031504;28;20004;-79
2023/07/05 16:53:39;;;;;;;;;;;16.60;99.90;;;;;;5032042;28;20000;-77
2023/07/05 16:56:06;;;;;;;;;;;16.60;99.90;;;;;;5033136;28;19917;-78
2023/07/05 16:58:32;;;;;;;;;;;16.70;99.90;;;;;;5033672;28;19964;-78
2023/07/05 17:01:02;;;;;;;;;;;16.70;99.90;;;;;;5031688;28;19976;-78
2023/07/05 17:03:32;;;;;;;;;;;16.60;99.90;;;;;;5019548;28;20326;-81
2023/07/05 17:05:58;;;;;;;;;;;16.60;99.90;;;;;;5012422;28;20361;-79
2023/07/05 17:08:27;;;;;;;;;;;16.60;99.90;;;;;;5015773;28;19925;-81
2023/07/05 17:10:59;;;;;;;;;;;16.60;99.90;;;;;;5015762;28;20393;-77
2023/07/05 17:13:27;;;;;;;;;;;16.50;99.90;;;;;;5015987;28;20385;-80
2023/07/05 17:15:53;;;;;;;;;;;16.40;99.90;;;;;;5015508;28;19918;-81
2023/07/05 17:18:19;;;;;;;;;;;16.40;99.90;;;;;;5015430;28;19917;-78
2023/07/05 17:20:52;;;;;;;;;;;16.40;99.90;;;;;;5015390;28;19975;-79
2023/07/05 17:23:17;;;;;;;;;;;16.50;99.90;;;;;;5011379;28;20058;-79